BTY01MC LEVT-LPPT
Flight info
| Callsign | BTY01MC |
|---|---|
| Flight time | 1h 25m |
| Altitude | 35000 |
| Route | NEA DCT ARDID DCT INBOM |
| Aircraft | B738/M-SDE2E3FGHIRWXY/LB1 |
Departure
| Time | 2026-05-07 19:17 |
|---|---|
| Airport | Vitoria Airport (LEVT) |
Arrival
| Time | 2026-05-07 20:42 |
|---|---|
| Airport | Lisbon Humberto Delgado Airport (LPPT) |
| Time | Latitude | Longitude | Altitude | Speed | Heading |
|---|---|---|---|---|---|
| 2026-05-07 18:30 | 42.88310 | -2.73045 | 1676 ft | 0 kts | 306° |
| 2026-05-07 19:07 | 42.88311 | -2.73046 | 1675 ft | 1 kts | 310° |
| 2026-05-07 19:07 | 42.88327 | -2.73048 | 1671 ft | 2 kts | 18° |
| 2026-05-07 19:07 | 42.88330 | -2.73032 | 1679 ft | 0 kts | 101° |
| 2026-05-07 19:08 | 42.88330 | -2.73031 | 1678 ft | 2 kts | 105° |
| 2026-05-07 19:08 | 42.88287 | -2.72960 | 1671 ft | 15 kts | 127° |
| 2026-05-07 19:08 | 42.88219 | -2.72854 | 1676 ft | 14 kts | 159° |
| 2026-05-07 19:08 | 42.88143 | -2.72893 | 1675 ft | 0 kts | 216° |
| 2026-05-07 19:09 | 42.88130 | -2.72921 | 1673 ft | 7 kts | 229° |
| 2026-05-07 19:09 | 42.88113 | -2.72913 | 1671 ft | 5 kts | 121° |
| 2026-05-07 19:09 | 42.88135 | -2.72877 | 1674 ft | 4 kts | 32° |
| 2026-05-07 19:09 | 42.88159 | -2.72861 | 1680 ft | 4 kts | 24° |
| 2026-05-07 19:10 | 42.88201 | -2.72830 | 1674 ft | 9 kts | 33° |
| 2026-05-07 19:10 | 42.88253 | -2.72780 | 1674 ft | 9 kts | 36° |
| 2026-05-07 19:10 | 42.88318 | -2.72717 | 1672 ft | 16 kts | 36° |
| 2026-05-07 19:10 | 42.88415 | -2.72622 | 1673 ft | 17 kts | 36° |
| 2026-05-07 19:11 | 42.88509 | -2.72528 | 1674 ft | 16 kts | 36° |
| 2026-05-07 19:11 | 42.88600 | -2.72439 | 1675 ft | 16 kts | 35° |
| 2026-05-07 19:11 | 42.88688 | -2.72355 | 1684 ft | 15 kts | 33° |
| 2026-05-07 19:11 | 42.88772 | -2.72272 | 1684 ft | 15 kts | 38° |
| 2026-05-07 19:12 | 42.88852 | -2.72192 | 1678 ft | 14 kts | 36° |
| 2026-05-07 19:12 | 42.88928 | -2.72116 | 1679 ft | 13 kts | 36° |
| 2026-05-07 19:12 | 42.89002 | -2.72043 | 1686 ft | 13 kts | 36° |
| 2026-05-07 19:12 | 42.89077 | -2.71968 | 1681 ft | 14 kts | 36° |
| 2026-05-07 19:13 | 42.89163 | -2.71882 | 1689 ft | 16 kts | 36° |
| 2026-05-07 19:13 | 42.89259 | -2.71785 | 1686 ft | 18 kts | 37° |
| 2026-05-07 19:13 | 42.89361 | -2.71688 | 1692 ft | 18 kts | 36° |
| 2026-05-07 19:13 | 42.89459 | -2.71592 | 1688 ft | 17 kts | 35° |
| 2026-05-07 19:14 | 42.89553 | -2.71500 | 1691 ft | 16 kts | 36° |
| 2026-05-07 19:14 | 42.89632 | -2.71406 | 1698 ft | 12 kts | 64° |
| 2026-05-07 19:14 | 42.89629 | -2.71346 | 1696 ft | 0 kts | 111° |
| 2026-05-07 19:14 | 42.89624 | -2.71332 | 1694 ft | 6 kts | 118° |
| 2026-05-07 19:15 | 42.89580 | -2.71257 | 1692 ft | 12 kts | 140° |
| 2026-05-07 19:15 | 42.89512 | -2.71246 | 1699 ft | 0 kts | 207° |
| 2026-05-07 19:16 | 42.89473 | -2.71283 | 1696 ft | 28 kts | 216° |
| 2026-05-07 19:16 | 42.89109 | -2.71640 | 1693 ft | 99 kts | 216° |
| 2026-05-07 19:17 | 42.88374 | -2.72360 | 1676 ft | 159 kts | 215° |
| 2026-05-07 19:17 | 42.87404 | -2.73318 | 2140 ft | 173 kts | 215° |
| 2026-05-07 19:17 | 42.86454 | -2.74263 | 3113 ft | 171 kts | 214° |
| 2026-05-07 19:17 | 42.85431 | -2.75220 | 3612 ft | 193 kts | 213° |
| 2026-05-07 19:18 | 42.84257 | -2.76295 | 3963 ft | 212 kts | 213° |
| 2026-05-07 19:18 | 42.83023 | -2.77429 | 4547 ft | 217 kts | 213° |
| 2026-05-07 19:18 | 42.81771 | -2.78585 | 5218 ft | 219 kts | 213° |
| 2026-05-07 19:18 | 42.80508 | -2.79754 | 5884 ft | 221 kts | 213° |
| 2026-05-07 19:19 | 42.79233 | -2.80938 | 6522 ft | 224 kts | 213° |
| 2026-05-07 19:19 | 42.77943 | -2.82136 | 7156 ft | 227 kts | 213° |
| 2026-05-07 19:19 | 42.76617 | -2.83366 | 7787 ft | 234 kts | 213° |
| 2026-05-07 19:19 | 42.75275 | -2.84612 | 8587 ft | 234 kts | 213° |
| 2026-05-07 19:20 | 42.73927 | -2.85863 | 9379 ft | 237 kts | 213° |
| 2026-05-07 19:20 | 42.72659 | -2.87298 | 10079 ft | 241 kts | 229° |
| 2026-05-07 19:20 | 42.71642 | -2.89112 | 10786 ft | 242 kts | 232° |
| 2026-05-07 19:20 | 42.70639 | -2.90962 | 11489 ft | 245 kts | 232° |
| 2026-05-07 19:21 | 42.69625 | -2.92830 | 12196 ft | 247 kts | 232° |
| 2026-05-07 19:21 | 42.68597 | -2.94713 | 12913 ft | 249 kts | 232° |
| 2026-05-07 19:21 | 42.67560 | -2.96604 | 13649 ft | 251 kts | 232° |
| 2026-05-07 19:21 | 42.66512 | -2.98507 | 14295 ft | 253 kts | 232° |
| 2026-05-07 19:22 | 42.65458 | -3.00416 | 14942 ft | 254 kts | 232° |
| 2026-05-07 19:22 | 42.64392 | -3.02339 | 15590 ft | 256 kts | 232° |
| 2026-05-07 19:22 | 42.63318 | -3.04273 | 16222 ft | 258 kts | 233° |
| 2026-05-07 19:22 | 42.62236 | -3.06219 | 16883 ft | 259 kts | 233° |
| 2026-05-07 19:23 | 42.61147 | -3.08174 | 17559 ft | 261 kts | 233° |
| 2026-05-07 19:23 | 42.60050 | -3.10141 | 18189 ft | 263 kts | 233° |
| 2026-05-07 19:23 | 42.58941 | -3.12127 | 18743 ft | 265 kts | 233° |
| 2026-05-07 19:23 | 42.57825 | -3.14124 | 19320 ft | 267 kts | 233° |
| 2026-05-07 19:24 | 42.56703 | -3.16130 | 19876 ft | 269 kts | 233° |
| 2026-05-07 19:24 | 42.55569 | -3.18156 | 20410 ft | 272 kts | 233° |
| 2026-05-07 19:24 | 42.54424 | -3.20199 | 20965 ft | 273 kts | 233° |
| 2026-05-07 19:24 | 42.53271 | -3.22254 | 21517 ft | 275 kts | 233° |
| 2026-05-07 19:25 | 42.52110 | -3.24324 | 22061 ft | 277 kts | 233° |
| 2026-05-07 19:25 | 42.50940 | -3.26407 | 22611 ft | 280 kts | 233° |
| 2026-05-07 19:25 | 42.49760 | -3.28507 | 23145 ft | 282 kts | 233° |
| 2026-05-07 19:25 | 42.48569 | -3.30624 | 23643 ft | 284 kts | 233° |
| 2026-05-07 19:26 | 42.47371 | -3.32753 | 24082 ft | 286 kts | 233° |
| 2026-05-07 19:26 | 42.46164 | -3.34897 | 24526 ft | 288 kts | 234° |
| 2026-05-07 19:26 | 42.44950 | -3.37051 | 24955 ft | 290 kts | 234° |
| 2026-05-07 19:26 | 42.43724 | -3.39224 | 25387 ft | 292 kts | 234° |
| 2026-05-07 19:27 | 42.42492 | -3.41407 | 25818 ft | 293 kts | 235° |
| 2026-05-07 19:27 | 42.41252 | -3.43603 | 26233 ft | 295 kts | 236° |
| 2026-05-07 19:27 | 42.39997 | -3.45828 | 26587 ft | 300 kts | 236° |
| 2026-05-07 19:27 | 42.38728 | -3.48073 | 26965 ft | 303 kts | 236° |
| 2026-05-07 19:28 | 42.37441 | -3.50344 | 27361 ft | 305 kts | 237° |
| 2026-05-07 19:28 | 42.36148 | -3.52627 | 27742 ft | 308 kts | 237° |
| 2026-05-07 19:28 | 42.34839 | -3.54935 | 28108 ft | 311 kts | 238° |
| 2026-05-07 19:28 | 42.33520 | -3.57261 | 28487 ft | 314 kts | 238° |
| 2026-05-07 19:29 | 42.32190 | -3.59602 | 28858 ft | 316 kts | 238° |
| 2026-05-07 19:29 | 42.30847 | -3.61966 | 29223 ft | 319 kts | 238° |
| 2026-05-07 19:29 | 42.29491 | -3.64351 | 29579 ft | 322 kts | 239° |
| 2026-05-07 19:29 | 42.28123 | -3.66755 | 29932 ft | 325 kts | 239° |
| 2026-05-07 19:30 | 42.26742 | -3.69180 | 30231 ft | 328 kts | 239° |
| 2026-05-07 19:30 | 42.25352 | -3.71616 | 30558 ft | 329 kts | 239° |
| 2026-05-07 19:30 | 42.23956 | -3.74062 | 30894 ft | 330 kts | 239° |
| 2026-05-07 19:30 | 42.22555 | -3.76515 | 31200 ft | 332 kts | 239° |
| 2026-05-07 19:31 | 42.21147 | -3.78978 | 31499 ft | 333 kts | 239° |
| 2026-05-07 19:31 | 42.19730 | -3.81454 | 31799 ft | 335 kts | 239° |
| 2026-05-07 19:31 | 42.18307 | -3.83941 | 32099 ft | 336 kts | 240° |
| 2026-05-07 19:31 | 42.16881 | -3.86428 | 32433 ft | 336 kts | 240° |
| 2026-05-07 19:32 | 42.15449 | -3.88925 | 32719 ft | 338 kts | 240° |
| 2026-05-07 19:32 | 42.14008 | -3.91438 | 32975 ft | 340 kts | 240° |
| 2026-05-07 19:32 | 42.12559 | -3.93961 | 33237 ft | 342 kts | 240° |
| 2026-05-07 19:32 | 42.11109 | -3.96483 | 33614 ft | 340 kts | 240° |
| 2026-05-07 19:33 | 42.09663 | -3.98995 | 33901 ft | 341 kts | 241° |
| 2026-05-07 19:33 | 42.08204 | -4.01530 | 34102 ft | 344 kts | 240° |
| 2026-05-07 19:33 | 42.06734 | -4.04084 | 34264 ft | 347 kts | 240° |
| 2026-05-07 19:33 | 42.05251 | -4.06658 | 34430 ft | 351 kts | 240° |
| 2026-05-07 19:34 | 42.03753 | -4.09252 | 34604 ft | 353 kts | 240° |
| 2026-05-07 19:34 | 42.02315 | -4.11908 | 34779 ft | 351 kts | 246° |
| 2026-05-07 19:34 | 42.01146 | -4.14775 | 34887 ft | 351 kts | 249° |
| 2026-05-07 19:34 | 42.00046 | -4.17727 | 34924 ft | 356 kts | 250° |
| 2026-05-07 19:35 | 41.97833 | -4.23778 | 34939 ft | 367 kts | 249° |
| 2026-05-07 19:35 | 41.95517 | -4.29996 | 34943 ft | 379 kts | 249° |
| 2026-05-07 19:36 | 41.93101 | -4.36376 | 34940 ft | 389 kts | 249° |
| 2026-05-07 19:36 | 41.90601 | -4.42921 | 34939 ft | 399 kts | 248° |
| 2026-05-07 19:37 | 41.88045 | -4.49577 | 34928 ft | 403 kts | 248° |
| 2026-05-07 19:37 | 41.85470 | -4.56263 | 34919 ft | 404 kts | 248° |
| 2026-05-07 19:38 | 41.82912 | -4.62886 | 34915 ft | 396 kts | 248° |
| 2026-05-07 19:38 | 41.80401 | -4.69380 | 34931 ft | 393 kts | 248° |
| 2026-05-07 19:39 | 41.77894 | -4.75863 | 34942 ft | 393 kts | 248° |
| 2026-05-07 19:39 | 41.75378 | -4.82351 | 34941 ft | 393 kts | 248° |
| 2026-05-07 19:40 | 41.72857 | -4.88838 | 34938 ft | 394 kts | 248° |
| 2026-05-07 19:40 | 41.70324 | -4.95336 | 34930 ft | 395 kts | 248° |
| 2026-05-07 19:41 | 41.67787 | -5.01832 | 34940 ft | 395 kts | 247° |
| 2026-05-07 19:41 | 41.65243 | -5.08330 | 34922 ft | 395 kts | 247° |
| 2026-05-07 19:42 | 41.62695 | -5.14825 | 34930 ft | 395 kts | 247° |
| 2026-05-07 19:42 | 41.60144 | -5.21313 | 34919 ft | 395 kts | 247° |
| 2026-05-07 19:43 | 41.57588 | -5.27799 | 34913 ft | 395 kts | 247° |
| 2026-05-07 19:43 | 41.55031 | -5.34273 | 34888 ft | 395 kts | 246° |
| 2026-05-07 19:44 | 41.52472 | -5.40738 | 34910 ft | 395 kts | 246° |
| 2026-05-07 19:44 | 41.49910 | -5.47196 | 34910 ft | 395 kts | 246° |
| 2026-05-07 19:45 | 41.47344 | -5.53651 | 34904 ft | 395 kts | 246° |
| 2026-05-07 19:45 | 41.44772 | -5.60105 | 34898 ft | 395 kts | 246° |
| 2026-05-07 19:46 | 41.42196 | -5.66557 | 34888 ft | 395 kts | 246° |
| 2026-05-07 19:46 | 41.39618 | -5.72999 | 34888 ft | 395 kts | 245° |
| 2026-05-07 19:47 | 41.37033 | -5.79444 | 34893 ft | 395 kts | 245° |
| 2026-05-07 19:47 | 41.34444 | -5.85884 | 34899 ft | 395 kts | 245° |
| 2026-05-07 19:48 | 41.31853 | -5.92317 | 34900 ft | 395 kts | 245° |
| 2026-05-07 19:48 | 41.29259 | -5.98744 | 34897 ft | 395 kts | 245° |
| 2026-05-07 19:49 | 41.26658 | -6.05174 | 34894 ft | 396 kts | 245° |
| 2026-05-07 19:49 | 41.24053 | -6.11602 | 34890 ft | 396 kts | 245° |
| 2026-05-07 19:50 | 41.21424 | -6.18075 | 34901 ft | 403 kts | 244° |
| 2026-05-07 19:50 | 41.18757 | -6.24627 | 34887 ft | 405 kts | 244° |
| 2026-05-07 19:51 | 41.15838 | -6.31014 | 34897 ft | 408 kts | 237° |
| 2026-05-07 19:51 | 41.12428 | -6.37025 | 34895 ft | 409 kts | 236° |
| 2026-05-07 19:52 | 41.08994 | -6.43014 | 34882 ft | 409 kts | 237° |
| 2026-05-07 19:52 | 41.05582 | -6.49011 | 34886 ft | 408 kts | 236° |
| 2026-05-07 19:53 | 41.02190 | -6.54996 | 34880 ft | 407 kts | 236° |
| 2026-05-07 19:53 | 40.98812 | -6.60960 | 34886 ft | 405 kts | 236° |
| 2026-05-07 19:54 | 40.95437 | -6.66906 | 34881 ft | 404 kts | 236° |
| 2026-05-07 19:54 | 40.92073 | -6.72823 | 34879 ft | 403 kts | 236° |
| 2026-05-07 19:55 | 40.88716 | -6.78716 | 34893 ft | 402 kts | 236° |
| 2026-05-07 19:55 | 40.85362 | -6.84592 | 34900 ft | 401 kts | 235° |
| 2026-05-07 19:56 | 40.82008 | -6.90456 | 34893 ft | 401 kts | 235° |
| 2026-05-07 19:56 | 40.78655 | -6.96307 | 34897 ft | 400 kts | 235° |
| 2026-05-07 19:57 | 40.75299 | -7.02153 | 34889 ft | 400 kts | 235° |
| 2026-05-07 19:57 | 40.71944 | -7.07987 | 34901 ft | 400 kts | 235° |
| 2026-05-07 19:58 | 40.68586 | -7.13815 | 34887 ft | 400 kts | 236° |
| 2026-05-07 19:58 | 40.65225 | -7.19637 | 34903 ft | 400 kts | 236° |
| 2026-05-07 19:59 | 40.61864 | -7.25447 | 34899 ft | 400 kts | 235° |
| 2026-05-07 19:59 | 40.58494 | -7.31262 | 34904 ft | 401 kts | 235° |
| 2026-05-07 20:00 | 40.55122 | -7.37074 | 34913 ft | 400 kts | 235° |
| 2026-05-07 20:00 | 40.51743 | -7.42880 | 34904 ft | 401 kts | 234° |
| 2026-05-07 20:01 | 40.48360 | -7.48685 | 34907 ft | 401 kts | 234° |
| 2026-05-07 20:01 | 40.44969 | -7.54492 | 34906 ft | 401 kts | 234° |
| 2026-05-07 20:02 | 40.41582 | -7.60283 | 34929 ft | 401 kts | 234° |
| 2026-05-07 20:02 | 40.38187 | -7.66077 | 34923 ft | 402 kts | 234° |
| 2026-05-07 20:03 | 40.34778 | -7.71883 | 34922 ft | 403 kts | 234° |
| 2026-05-07 20:03 | 40.31361 | -7.77692 | 34916 ft | 404 kts | 234° |
| 2026-05-07 20:04 | 40.27937 | -7.83502 | 34917 ft | 403 kts | 234° |
| 2026-05-07 20:04 | 40.24550 | -7.89237 | 34911 ft | 390 kts | 234° |
| 2026-05-07 20:05 | 40.22908 | -7.92013 | 34600 ft | 382 kts | 234° |
| 2026-05-07 20:05 | 40.21300 | -7.94730 | 34237 ft | 377 kts | 234° |
| 2026-05-07 20:05 | 40.19708 | -7.97420 | 33871 ft | 373 kts | 233° |
| 2026-05-07 20:05 | 40.18129 | -8.00084 | 33416 ft | 370 kts | 233° |
| 2026-05-07 20:06 | 40.16565 | -8.02721 | 33045 ft | 366 kts | 233° |
| 2026-05-07 20:06 | 40.15016 | -8.05331 | 32640 ft | 363 kts | 233° |
| 2026-05-07 20:06 | 40.13478 | -8.07919 | 32245 ft | 360 kts | 233° |
| 2026-05-07 20:06 | 40.11954 | -8.10483 | 31853 ft | 357 kts | 233° |
| 2026-05-07 20:07 | 40.10439 | -8.13028 | 31459 ft | 353 kts | 233° |
| 2026-05-07 20:07 | 40.08941 | -8.15546 | 31109 ft | 350 kts | 233° |
| 2026-05-07 20:07 | 40.07452 | -8.18043 | 30744 ft | 348 kts | 233° |
| 2026-05-07 20:07 | 40.05973 | -8.20525 | 30379 ft | 346 kts | 233° |
| 2026-05-07 20:08 | 40.04500 | -8.22992 | 30019 ft | 345 kts | 233° |
| 2026-05-07 20:08 | 40.03029 | -8.25455 | 29591 ft | 343 kts | 233° |
| 2026-05-07 20:08 | 40.01526 | -8.27861 | 29187 ft | 345 kts | 225° |
| 2026-05-07 20:08 | 39.99534 | -8.29673 | 28870 ft | 357 kts | 209° |
| 2026-05-07 20:09 | 39.97153 | -8.30745 | 28545 ft | 371 kts | 193° |
| 2026-05-07 20:09 | 39.94590 | -8.31208 | 28250 ft | 373 kts | 191° |
| 2026-05-07 20:09 | 39.92044 | -8.31680 | 27916 ft | 366 kts | 197° |
| 2026-05-07 20:10 | 39.87497 | -8.34188 | 27328 ft | 351 kts | 211° |
| 2026-05-07 20:10 | 39.85363 | -8.35716 | 27056 ft | 350 kts | 211° |
| 2026-05-07 20:10 | 39.83239 | -8.37242 | 26754 ft | 349 kts | 211° |
| 2026-05-07 20:10 | 39.81122 | -8.38757 | 26476 ft | 348 kts | 210° |
| 2026-05-07 20:11 | 39.79006 | -8.40263 | 26197 ft | 347 kts | 210° |
| 2026-05-07 20:11 | 39.76895 | -8.41761 | 25917 ft | 346 kts | 210° |
| 2026-05-07 20:11 | 39.74786 | -8.43252 | 25637 ft | 345 kts | 210° |
| 2026-05-07 20:11 | 39.72684 | -8.44735 | 25356 ft | 344 kts | 210° |
| 2026-05-07 20:12 | 39.70584 | -8.46215 | 25059 ft | 344 kts | 210° |
| 2026-05-07 20:12 | 39.68489 | -8.47689 | 24791 ft | 343 kts | 210° |
| 2026-05-07 20:12 | 39.66397 | -8.49159 | 24515 ft | 342 kts | 210° |
| 2026-05-07 20:12 | 39.64314 | -8.50622 | 24241 ft | 341 kts | 210° |
| 2026-05-07 20:13 | 39.62237 | -8.52081 | 23970 ft | 340 kts | 210° |
| 2026-05-07 20:13 | 39.60166 | -8.53533 | 23688 ft | 339 kts | 210° |
| 2026-05-07 20:13 | 39.58098 | -8.54982 | 23384 ft | 338 kts | 209° |
| 2026-05-07 20:13 | 39.56042 | -8.56422 | 23072 ft | 336 kts | 209° |
| 2026-05-07 20:14 | 39.53999 | -8.57853 | 22779 ft | 334 kts | 209° |
| 2026-05-07 20:14 | 39.51967 | -8.59274 | 22497 ft | 331 kts | 209° |
| 2026-05-07 20:14 | 39.49950 | -8.60684 | 22229 ft | 329 kts | 209° |
| 2026-05-07 20:14 | 39.47944 | -8.62086 | 21943 ft | 327 kts | 208° |
| 2026-05-07 20:15 | 39.45950 | -8.63478 | 21682 ft | 325 kts | 208° |
| 2026-05-07 20:15 | 39.43967 | -8.64861 | 21426 ft | 324 kts | 208° |
| 2026-05-07 20:15 | 39.41992 | -8.66239 | 21164 ft | 323 kts | 208° |
| 2026-05-07 20:15 | 39.40019 | -8.67614 | 20903 ft | 322 kts | 208° |
| 2026-05-07 20:16 | 39.38054 | -8.68983 | 20648 ft | 322 kts | 208° |
| 2026-05-07 20:16 | 39.36091 | -8.70350 | 20389 ft | 320 kts | 208° |
| 2026-05-07 20:16 | 39.34137 | -8.71708 | 20129 ft | 319 kts | 207° |
| 2026-05-07 20:16 | 39.32191 | -8.73060 | 19886 ft | 316 kts | 208° |
| 2026-05-07 20:17 | 39.30380 | -8.74617 | 19612 ft | 313 kts | 218° |
| 2026-05-07 20:17 | 39.28761 | -8.76453 | 19363 ft | 308 kts | 220° |
| 2026-05-07 20:17 | 39.27192 | -8.78298 | 19107 ft | 304 kts | 220° |
| 2026-05-07 20:17 | 39.25638 | -8.80128 | 18863 ft | 302 kts | 220° |
| 2026-05-07 20:18 | 39.24087 | -8.81940 | 18612 ft | 301 kts | 220° |
| 2026-05-07 20:18 | 39.22537 | -8.83736 | 18374 ft | 300 kts | 220° |
| 2026-05-07 20:18 | 39.20987 | -8.85521 | 18112 ft | 299 kts | 220° |
| 2026-05-07 20:18 | 39.19441 | -8.87297 | 17841 ft | 298 kts | 219° |
| 2026-05-07 20:19 | 39.17895 | -8.89065 | 17585 ft | 297 kts | 219° |
| 2026-05-07 20:19 | 39.16356 | -8.90825 | 17333 ft | 296 kts | 219° |
| 2026-05-07 20:19 | 39.14818 | -8.92579 | 17087 ft | 295 kts | 219° |
| 2026-05-07 20:19 | 39.13288 | -8.94324 | 16849 ft | 295 kts | 219° |
| 2026-05-07 20:20 | 39.11756 | -8.96069 | 16605 ft | 294 kts | 219° |
| 2026-05-07 20:20 | 39.10228 | -8.97808 | 16367 ft | 294 kts | 219° |
| 2026-05-07 20:20 | 39.08701 | -8.99545 | 16127 ft | 294 kts | 219° |
| 2026-05-07 20:20 | 39.07174 | -9.01280 | 15889 ft | 293 kts | 219° |
| 2026-05-07 20:21 | 39.05652 | -9.03011 | 15648 ft | 292 kts | 219° |
| 2026-05-07 20:21 | 39.04136 | -9.04732 | 15414 ft | 291 kts | 219° |
| 2026-05-07 20:21 | 39.02632 | -9.06439 | 15173 ft | 287 kts | 219° |
| 2026-05-07 20:21 | 39.01151 | -9.08118 | 14935 ft | 282 kts | 219° |
| 2026-05-07 20:22 | 38.99612 | -9.09630 | 14708 ft | 276 kts | 205° |
| 2026-05-07 20:22 | 38.97879 | -9.10598 | 14510 ft | 270 kts | 201° |
| 2026-05-07 20:22 | 38.96157 | -9.11494 | 14273 ft | 266 kts | 200° |
| 2026-05-07 20:22 | 38.94458 | -9.12380 | 14059 ft | 262 kts | 200° |
| 2026-05-07 20:23 | 38.92786 | -9.13259 | 13845 ft | 258 kts | 200° |
| 2026-05-07 20:23 | 38.91137 | -9.14130 | 13619 ft | 256 kts | 200° |
| 2026-05-07 20:23 | 38.89500 | -9.14998 | 13379 ft | 254 kts | 200° |
| 2026-05-07 20:23 | 38.87879 | -9.15860 | 13187 ft | 252 kts | 200° |
| 2026-05-07 20:24 | 38.86269 | -9.16717 | 12953 ft | 251 kts | 200° |
| 2026-05-07 20:24 | 38.84669 | -9.17570 | 12759 ft | 249 kts | 201° |
| 2026-05-07 20:24 | 38.83070 | -9.18422 | 12544 ft | 249 kts | 200° |
| 2026-05-07 20:24 | 38.81480 | -9.19271 | 12345 ft | 247 kts | 200° |
| 2026-05-07 20:25 | 38.79896 | -9.20115 | 12152 ft | 247 kts | 201° |
| 2026-05-07 20:25 | 38.78308 | -9.20962 | 11948 ft | 248 kts | 201° |
| 2026-05-07 20:25 | 38.76720 | -9.21808 | 11739 ft | 248 kts | 201° |
| 2026-05-07 20:25 | 38.75132 | -9.22653 | 11539 ft | 248 kts | 201° |
| 2026-05-07 20:26 | 38.73538 | -9.23502 | 11336 ft | 249 kts | 201° |
| 2026-05-07 20:26 | 38.72076 | -9.24684 | 11110 ft | 253 kts | 223° |
| 2026-05-07 20:26 | 38.70970 | -9.26432 | 11004 ft | 253 kts | 230° |
| 2026-05-07 20:26 | 38.69910 | -9.28249 | 10732 ft | 256 kts | 230° |
| 2026-05-07 20:27 | 38.68848 | -9.30062 | 10513 ft | 254 kts | 230° |
| 2026-05-07 20:27 | 38.67813 | -9.31869 | 10297 ft | 252 kts | 234° |
| 2026-05-07 20:27 | 38.67009 | -9.33860 | 10100 ft | 252 kts | 242° |
| 2026-05-07 20:27 | 38.66301 | -9.35905 | 9894 ft | 251 kts | 243° |
| 2026-05-07 20:28 | 38.65603 | -9.37943 | 9674 ft | 250 kts | 242° |
| 2026-05-07 20:28 | 38.64902 | -9.39964 | 9453 ft | 248 kts | 242° |
| 2026-05-07 20:28 | 38.64199 | -9.41967 | 9235 ft | 247 kts | 242° |
| 2026-05-07 20:28 | 38.63494 | -9.43957 | 9036 ft | 245 kts | 242° |
| 2026-05-07 20:29 | 38.62788 | -9.45935 | 8839 ft | 245 kts | 242° |
| 2026-05-07 20:29 | 38.62080 | -9.47906 | 8647 ft | 244 kts | 243° |
| 2026-05-07 20:29 | 38.61371 | -9.49878 | 8442 ft | 244 kts | 243° |
| 2026-05-07 20:29 | 38.60662 | -9.51848 | 8245 ft | 244 kts | 243° |
| 2026-05-07 20:30 | 38.59756 | -9.53627 | 8026 ft | 238 kts | 220° |
| 2026-05-07 20:30 | 38.58320 | -9.54571 | 7976 ft | 233 kts | 195° |
| 2026-05-07 20:30 | 38.56722 | -9.54736 | 7943 ft | 232 kts | 174° |
| 2026-05-07 20:30 | 38.55138 | -9.54356 | 7961 ft | 233 kts | 171° |
| 2026-05-07 20:31 | 38.53543 | -9.53941 | 7968 ft | 237 kts | 171° |
| 2026-05-07 20:31 | 38.51924 | -9.53523 | 7959 ft | 238 kts | 171° |
| 2026-05-07 20:31 | 38.50309 | -9.53103 | 7944 ft | 237 kts | 168° |
| 2026-05-07 20:31 | 38.48821 | -9.52221 | 7955 ft | 238 kts | 147° |
| 2026-05-07 20:32 | 38.47467 | -9.51016 | 7945 ft | 238 kts | 148° |
| 2026-05-07 20:32 | 38.46097 | -9.49833 | 7955 ft | 238 kts | 148° |
| 2026-05-07 20:32 | 38.44721 | -9.48658 | 7949 ft | 239 kts | 149° |
| 2026-05-07 20:32 | 38.43340 | -9.47483 | 7949 ft | 239 kts | 149° |
| 2026-05-07 20:33 | 38.41960 | -9.46293 | 7947 ft | 241 kts | 144° |
| 2026-05-07 20:33 | 38.40870 | -9.44665 | 7966 ft | 245 kts | 126° |
| 2026-05-07 20:33 | 38.39957 | -9.42841 | 7938 ft | 244 kts | 127° |
| 2026-05-07 20:33 | 38.39215 | -9.40898 | 7570 ft | 254 kts | 103° |
| 2026-05-07 20:34 | 38.39460 | -9.38648 | 7157 ft | 261 kts | 65° |
| 2026-05-07 20:34 | 38.40573 | -9.36864 | 6879 ft | 255 kts | 41° |
| 2026-05-07 20:34 | 38.41998 | -9.35620 | 6618 ft | 245 kts | 29° |
| 2026-05-07 20:34 | 38.43467 | -9.34607 | 6396 ft | 236 kts | 27° |
| 2026-05-07 20:35 | 38.44901 | -9.33648 | 6148 ft | 230 kts | 27° |
| 2026-05-07 20:35 | 38.46288 | -9.32712 | 5967 ft | 224 kts | 27° |
| 2026-05-07 20:35 | 38.47666 | -9.31771 | 5760 ft | 226 kts | 27° |
| 2026-05-07 20:35 | 38.49049 | -9.30820 | 5569 ft | 227 kts | 27° |
| 2026-05-07 20:36 | 38.50438 | -9.29857 | 5354 ft | 228 kts | 27° |
| 2026-05-07 20:36 | 38.51835 | -9.28883 | 5141 ft | 230 kts | 27° |
| 2026-05-07 20:36 | 38.53230 | -9.27906 | 4932 ft | 226 kts | 27° |
| 2026-05-07 20:36 | 38.54567 | -9.26968 | 4690 ft | 214 kts | 26° |
| 2026-05-07 20:37 | 38.55828 | -9.26081 | 4493 ft | 201 kts | 26° |
| 2026-05-07 20:37 | 38.57036 | -9.25232 | 4315 ft | 198 kts | 26° |
| 2026-05-07 20:37 | 38.58220 | -9.24412 | 4269 ft | 191 kts | 25° |
| 2026-05-07 20:37 | 38.59438 | -9.23668 | 4034 ft | 196 kts | 21° |
| 2026-05-07 20:38 | 38.60687 | -9.22971 | 3777 ft | 196 kts | 20° |
| 2026-05-07 20:38 | 38.61925 | -9.22300 | 3512 ft | 191 kts | 20° |
| 2026-05-07 20:38 | 38.63121 | -9.21656 | 3267 ft | 183 kts | 20° |
| 2026-05-07 20:38 | 38.64266 | -9.21041 | 3006 ft | 176 kts | 19° |
| 2026-05-07 20:39 | 38.65363 | -9.20451 | 2786 ft | 168 kts | 20° |
| 2026-05-07 20:39 | 38.66423 | -9.19882 | 2566 ft | 163 kts | 19° |
| 2026-05-07 20:39 | 38.67471 | -9.19319 | 2349 ft | 165 kts | 19° |
| 2026-05-07 20:39 | 38.68530 | -9.18751 | 2103 ft | 164 kts | 19° |
| 2026-05-07 20:40 | 38.69569 | -9.18192 | 1890 ft | 161 kts | 19° |
| 2026-05-07 20:40 | 38.70570 | -9.17653 | 1704 ft | 155 kts | 19° |
| 2026-05-07 20:40 | 38.71549 | -9.17128 | 1472 ft | 151 kts | 19° |
| 2026-05-07 20:40 | 38.72522 | -9.16605 | 1257 ft | 152 kts | 20° |
| 2026-05-07 20:41 | 38.73488 | -9.16084 | 1068 ft | 152 kts | 19° |
| 2026-05-07 20:41 | 38.74476 | -9.15556 | 845 ft | 157 kts | 20° |
| 2026-05-07 20:41 | 38.75485 | -9.15009 | 632 ft | 158 kts | 21° |
| 2026-05-07 20:41 | 38.76487 | -9.14467 | 426 ft | 151 kts | 18° |
| 2026-05-07 20:42 | 38.77399 | -9.13983 | 346 ft | 127 kts | 23° |
| 2026-05-07 20:42 | 38.78039 | -9.13641 | 352 ft | 80 kts | 21° |
| 2026-05-07 20:42 | 38.78426 | -9.13437 | 344 ft | 34 kts | 25° |
| 2026-05-07 20:42 | 38.78528 | -9.13280 | 350 ft | 16 kts | 109° |
| 2026-05-07 20:43 | 38.78522 | -9.13266 | 346 ft | 0 kts | 121° |
| 2026-05-07 20:43 | 38.78469 | -9.13227 | 345 ft | 13 kts | 167° |
| 2026-05-07 20:44 | 38.78384 | -9.13233 | 350 ft | 12 kts | 196° |
| 2026-05-07 20:44 | 38.78305 | -9.13272 | 351 ft | 12 kts | 200° |
| 2026-05-07 20:44 | 38.78229 | -9.13310 | 349 ft | 12 kts | 202° |
| 2026-05-07 20:44 | 38.78156 | -9.13349 | 346 ft | 11 kts | 204° |
| 2026-05-07 20:45 | 38.78080 | -9.13388 | 348 ft | 15 kts | 201° |
| 2026-05-07 20:45 | 38.77960 | -9.13397 | 346 ft | 18 kts | 169° |
| 2026-05-07 20:45 | 38.77842 | -9.13367 | 346 ft | 17 kts | 168° |
| 2026-05-07 20:45 | 38.77728 | -9.13335 | 350 ft | 16 kts | 169° |
| 2026-05-07 20:46 | 38.77616 | -9.13321 | 346 ft | 16 kts | 177° |
| 2026-05-07 20:46 | 38.77509 | -9.13301 | 354 ft | 15 kts | 168° |
| 2026-05-07 20:46 | 38.77407 | -9.13274 | 346 ft | 15 kts | 170° |
| 2026-05-07 20:46 | 38.77308 | -9.13253 | 346 ft | 14 kts | 169° |
| 2026-05-07 20:47 | 38.77223 | -9.13232 | 350 ft | 10 kts | 169° |
| 2026-05-07 20:47 | 38.77167 | -9.13216 | 350 ft | 3 kts | 153° |
| 2026-05-07 20:47 | 38.77156 | -9.13192 | 351 ft | 4 kts | 112° |
| 2026-05-07 20:47 | 38.77155 | -9.13163 | 346 ft | 1 kts | 83° |
| 2026-05-07 20:48 | 38.77157 | -9.13153 | 346 ft | 1 kts | 77° |
| 2026-05-07 20:48 | 38.77159 | -9.13143 | 348 ft | 0 kts | 77° |
| 2026-05-07 20:48 | 38.77160 | -9.13135 | 350 ft | 0 kts | 78° |
| 2026-05-07 20:49 | 38.77161 | -9.13130 | 351 ft | 0 kts | 78° |